KEMV

Emporia-Greensville Regional Airport

Emporia, Virginia, USA
METAR KEMV 181416Z AUTO 33006KT 10SM CLR 11/05 A3046 RMK AO2
Observed Flight Rules
Oct-18 @ 14:16 UTC (2 hours ago) Visual Flight Rules
Wind Visibility Clouds
330° at 6 knots 10 miles
  • Clear skies
Temperatures Readings
Current 11°C / 52°F
Dewpoint 5°C / 41°F
Humidity 67%
Altimeter 30.46" Hg
Pressure 1031 hPa
Elevation 39
METAR KEMV 181416Z AUTO 33006KT 10SM CLR 11/05 A3046 RMK AO2
Observed Flight Rules
Oct-18 @ 14:16 UTC
(2 hours ago)
VFR
Wind Visibility
330° at 6 knots 10 miles
Clouds
  • Clear skies
Temperature Dewpoint
11°C / 52°F 5°C / 41°F
Humidity Altimeter Pressure
67% 30.46" Hg 1031 hPa